createdAt,value
2019-03-03T00:00:23.959Z,0.00
2019-03-03T00:01:24.171Z,0.00
2019-03-03T00:02:23.783Z,0.00
2019-03-03T00:03:23.698Z,0.00
2019-03-03T00:04:23.621Z,0.00
2019-03-03T00:05:23.534Z,0.00
2019-03-03T00:06:23.452Z,0.00
2019-03-03T00:07:23.375Z,0.00
2019-03-03T00:08:24.672Z,0.00
2019-03-03T00:09:23.183Z,0.00
2019-03-03T00:10:23.109Z,0.00
2019-03-03T00:11:23.023Z,0.00
2019-03-03T00:12:22.934Z,0.00
2019-03-03T00:13:22.852Z,0.00
2019-03-03T00:14:22.761Z,0.00
2019-03-03T00:15:22.673Z,0.00
2019-03-03T00:16:22.586Z,0.00
2019-03-03T00:17:22.510Z,0.00
2019-03-03T00:18:22.425Z,0.00
2019-03-03T00:19:22.336Z,0.00
2019-03-03T00:20:22.249Z,0.00
2019-03-03T00:21:22.160Z,0.00
2019-03-03T00:22:22.085Z,0.00
2019-03-03T00:23:21.999Z,0.00
2019-03-03T00:24:21.910Z,0.00
2019-03-03T00:25:21.824Z,0.00
2019-03-03T00:26:21.738Z,0.00
2019-03-03T00:27:21.651Z,0.00
2019-03-03T00:28:21.564Z,0.00
2019-03-03T00:29:21.486Z,0.00
2019-03-03T00:30:21.402Z,0.00
2019-03-03T00:31:21.311Z,0.00
2019-03-03T00:32:21.235Z,0.00
2019-03-03T00:33:21.137Z,0.00
2019-03-03T00:34:21.050Z,0.00
2019-03-03T00:35:20.975Z,0.00
2019-03-03T00:36:20.900Z,0.00
2019-03-03T00:37:20.804Z,0.00
2019-03-03T00:38:20.712Z,0.00
2019-03-03T00:39:20.632Z,0.00
2019-03-03T00:40:20.538Z,0.00
2019-03-03T00:41:20.712Z,0.00
2019-03-03T00:42:20.375Z,0.00
2019-03-03T00:43:20.301Z,0.00
2019-03-03T00:44:20.200Z,0.00
2019-03-03T00:45:20.116Z,0.00
2019-03-03T00:46:20.028Z,0.00
2019-03-03T00:47:19.951Z,0.00
2019-03-03T00:48:19.863Z,0.00
2019-03-03T00:49:19.828Z,0.00
2019-03-03T00:50:19.690Z,0.00
2019-03-03T00:51:19.602Z,0.00
2019-03-03T00:52:19.517Z,0.00
2019-03-03T00:53:19.438Z,0.00
2019-03-03T00:54:19.352Z,0.00
2019-03-03T00:55:19.263Z,0.00
2019-03-03T00:56:19.178Z,0.00
2019-03-03T00:57:19.092Z,0.00
2019-03-03T00:58:19.032Z,0.00
2019-03-03T00:59:18.927Z,0.00
2019-03-03T01:00:18.839Z,0.00
2019-03-03T01:01:19.003Z,0.00
2019-03-03T01:02:18.664Z,0.00
2019-03-03T01:03:18.578Z,0.00
2019-03-03T01:04:18.504Z,0.00
2019-03-03T01:05:18.415Z,0.00
2019-03-03T01:06:18.331Z,0.00
2019-03-03T01:07:18.240Z,0.00
2019-03-03T01:08:18.153Z,0.00
2019-03-03T01:09:18.068Z,0.00
2019-03-03T01:10:17.992Z,0.00
2019-03-03T01:11:17.904Z,0.00
2019-03-03T01:12:17.817Z,0.00
2019-03-03T01:13:17.732Z,0.00
2019-03-03T01:14:17.644Z,0.00
2019-03-03T01:15:17.565Z,0.00
2019-03-03T01:16:17.480Z,0.00
2019-03-03T01:17:17.391Z,0.00
2019-03-03T01:18:17.305Z,0.00
2019-03-03T01:19:17.218Z,0.00
2019-03-03T01:20:17.131Z,0.00
2019-03-03T01:21:17.055Z,0.00
2019-03-03T01:22:16.968Z,0.00
2019-03-03T01:23:16.880Z,0.00
2019-03-03T01:24:16.792Z,0.00
2019-03-03T01:25:16.706Z,0.00
2019-03-03T01:26:16.634Z,0.00
2019-03-03T01:27:16.542Z,0.00
2019-03-03T01:28:16.455Z,0.00
2019-03-03T01:29:16.368Z,0.00
2019-03-03T01:30:16.280Z,0.00
2019-03-03T01:31:16.193Z,0.00
2019-03-03T01:32:16.120Z,0.00
2019-03-03T01:33:16.031Z,0.00
2019-03-03T01:34:15.943Z,0.00
2019-03-03T01:35:15.858Z,0.00
2019-03-03T01:36:15.769Z,0.00
2019-03-03T01:37:15.681Z,0.00
2019-03-03T01:38:15.607Z,0.00
2019-03-03T01:39:15.518Z,0.00
2019-03-03T01:40:15.431Z,0.00
2019-03-03T01:41:15.343Z,0.00
2019-03-03T01:42:15.257Z,0.00
2019-03-03T01:43:15.169Z,0.00
2019-03-03T01:44:15.095Z,0.00
2019-03-03T01:45:15.010Z,0.00
2019-03-03T01:46:14.932Z,0.00
2019-03-03T01:47:14.835Z,0.00
2019-03-03T01:48:14.744Z,0.00
2019-03-03T01:49:14.659Z,0.00
2019-03-03T01:50:14.584Z,0.00
2019-03-03T01:51:14.495Z,0.00
2019-03-03T01:52:14.409Z,0.00
2019-03-03T01:53:14.325Z,0.00
2019-03-03T01:54:14.233Z,0.00
2019-03-03T01:55:14.145Z,0.00
2019-03-03T01:56:14.072Z,0.00
2019-03-03T01:57:13.983Z,0.00
2019-03-03T01:58:13.895Z,0.00
2019-03-03T01:59:13.810Z,0.00
2019-03-03T02:00:13.733Z,0.00
2019-03-03T02:01:13.897Z,0.00
2019-03-03T02:02:13.558Z,0.00
2019-03-03T02:03:13.471Z,0.00
2019-03-03T02:04:13.385Z,0.00
2019-03-03T02:05:13.296Z,0.00
2019-03-03T02:06:13.210Z,0.00
2019-03-03T02:07:13.122Z,0.00
2019-03-03T02:08:13.046Z,0.00
2019-03-03T02:09:12.960Z,0.00
2019-03-03T02:10:12.885Z,0.00
2019-03-03T02:11:12.785Z,0.00
2019-03-03T02:12:12.701Z,0.00
2019-03-03T02:13:12.617Z,0.00
2019-03-03T02:14:12.535Z,0.00
2019-03-03T02:15:12.447Z,0.00
2019-03-03T02:16:12.363Z,0.00
2019-03-03T02:17:12.273Z,0.00
2019-03-03T02:18:12.186Z,0.00
2019-03-03T02:19:12.099Z,0.00
2019-03-03T02:20:12.023Z,0.00
2019-03-03T02:21:12.238Z,0.00
2019-03-03T02:22:11.848Z,0.00
2019-03-03T02:23:11.762Z,0.00
2019-03-03T02:24:11.689Z,0.00
2019-03-03T02:25:11.600Z,0.00
2019-03-03T02:26:11.513Z,0.00
2019-03-03T02:27:11.424Z,0.00
2019-03-03T02:28:11.337Z,0.00
2019-03-03T02:29:11.252Z,0.00
2019-03-03T02:30:11.174Z,0.00
2019-03-03T02:31:11.088Z,0.00
2019-03-03T02:32:11.000Z,0.00
2019-03-03T02:33:10.913Z,0.00
2019-03-03T02:34:10.825Z,0.00
2019-03-03T02:35:10.757Z,0.00
2019-03-03T02:36:10.668Z,0.00
2019-03-03T02:37:10.576Z,0.00
2019-03-03T02:38:10.488Z,0.00
2019-03-03T02:39:10.401Z,0.00
2019-03-03T02:40:10.314Z,0.00
2019-03-03T02:41:10.243Z,0.00
2019-03-03T02:42:10.150Z,0.00
2019-03-03T02:43:10.069Z,0.00
2019-03-03T02:44:09.978Z,0.00
2019-03-03T02:45:09.899Z,0.00
2019-03-03T02:46:09.815Z,0.00
2019-03-03T02:47:09.726Z,0.00
2019-03-03T02:48:09.665Z,0.00
2019-03-03T02:49:09.588Z,0.00
2019-03-03T02:50:09.464Z,0.00
2019-03-03T02:51:09.380Z,0.00
2019-03-03T02:52:09.310Z,0.00
2019-03-03T02:53:09.214Z,0.00
2019-03-03T02:54:09.127Z,0.00
2019-03-03T02:55:09.050Z,0.00
2019-03-03T02:56:08.954Z,0.00
2019-03-03T02:57:08.877Z,0.00
2019-03-03T02:58:08.792Z,0.00
2019-03-03T02:59:08.704Z,0.00
2019-03-03T03:00:08.617Z,0.00
2019-03-03T03:01:08.842Z,0.00
2019-03-03T03:02:08.459Z,0.00
2019-03-03T03:03:08.367Z,0.00
2019-03-03T03:04:08.278Z,0.00
2019-03-03T03:05:08.192Z,0.00
2019-03-03T03:06:08.104Z,0.00
2019-03-03T03:07:08.016Z,0.00
2019-03-03T03:08:07.945Z,0.00
2019-03-03T03:09:07.866Z,0.00
2019-03-03T03:10:07.771Z,0.00
2019-03-03T03:11:07.928Z,0.00
2019-03-03T03:12:07.598Z,0.00
2019-03-03T03:13:07.517Z,0.00
2019-03-03T03:14:07.430Z,0.00
2019-03-03T03:15:07.343Z,0.00
2019-03-03T03:16:07.269Z,0.00
2019-03-03T03:17:07.170Z,0.00
2019-03-03T03:18:07.098Z,0.00
2019-03-03T03:19:07.004Z,0.00
2019-03-03T03:20:06.919Z,0.00
2019-03-03T03:21:07.129Z,0.00
2019-03-03T03:22:06.742Z,0.00
2019-03-03T03:23:06.670Z,0.00
2019-03-03T03:24:06.579Z,0.00
2019-03-03T03:25:06.499Z,0.00
2019-03-03T03:26:06.406Z,0.00
2019-03-03T03:27:07.318Z,0.00
2019-03-03T03:28:06.231Z,0.00
2019-03-03T03:29:06.173Z,0.00
2019-03-03T03:30:06.069Z,0.00
2019-03-03T03:31:05.981Z,0.00
2019-03-03T03:32:05.894Z,0.00
2019-03-03T03:33:05.817Z,0.00
2019-03-03T03:34:05.745Z,0.00
2019-03-03T03:35:05.644Z,0.00
2019-03-03T03:36:05.558Z,0.00
2019-03-03T03:37:05.468Z,0.00
2019-03-03T03:38:05.381Z,0.00
2019-03-03T03:39:05.313Z,0.00
2019-03-03T03:40:05.292Z,0.00
2019-03-03T03:41:05.131Z,0.00
2019-03-03T03:42:05.044Z,0.00
2019-03-03T03:43:04.957Z,0.00
2019-03-03T03:44:04.882Z,0.00
2019-03-03T03:45:04.795Z,0.00
2019-03-03T03:46:05.069Z,0.00
2019-03-03T03:47:04.621Z,0.00
2019-03-03T03:48:04.546Z,0.00
2019-03-03T03:49:04.460Z,0.00
2019-03-03T03:50:04.373Z,0.00
2019-03-03T03:51:04.289Z,0.00
2019-03-03T03:52:04.198Z,0.00
2019-03-03T03:53:04.108Z,0.00
2019-03-03T03:54:04.032Z,0.00
2019-03-03T03:55:03.949Z,0.00
2019-03-03T03:56:03.867Z,0.00
2019-03-03T03:57:03.789Z,0.00
2019-03-03T03:58:03.700Z,0.00
2019-03-03T03:59:03.596Z,0.00
2019-03-03T04:00:03.522Z,0.00
2019-03-03T04:01:03.433Z,0.00
2019-03-03T04:02:03.346Z,0.00
2019-03-03T04:03:03.285Z,0.00
2019-03-03T04:04:03.173Z,0.00
2019-03-03T04:05:03.105Z,0.00
2019-03-03T04:06:03.261Z,0.00
2019-03-03T04:07:02.923Z,0.00
2019-03-03T04:08:02.835Z,0.00
2019-03-03T04:09:02.747Z,0.00
2019-03-03T04:10:02.683Z,0.00
2019-03-03T04:11:02.585Z,0.00
2019-03-03T04:12:02.504Z,0.00
2019-03-03T04:13:02.428Z,0.00
2019-03-03T04:14:02.337Z,0.00
2019-03-03T04:15:02.252Z,0.00
2019-03-03T04:16:02.162Z,0.00
2019-03-03T04:17:02.073Z,0.00
2019-03-03T04:18:01.993Z,0.00
2019-03-03T04:19:01.902Z,0.00
2019-03-03T04:20:01.882Z,0.00
2019-03-03T04:21:01.991Z,0.00
2019-03-03T04:22:01.649Z,0.00
2019-03-03T04:23:01.562Z,0.00
2019-03-03T04:24:01.509Z,0.00
2019-03-03T04:25:01.399Z,0.00
2019-03-03T04:26:01.323Z,0.00
2019-03-03T04:27:01.225Z,0.00
2019-03-03T04:28:01.136Z,0.00
2019-03-03T04:29:01.062Z,0.00
2019-03-03T04:30:00.975Z,0.00
2019-03-03T04:31:00.886Z,0.00
2019-03-03T04:32:00.798Z,0.00
2019-03-03T04:33:00.724Z,0.00
2019-03-03T04:34:00.636Z,0.00
2019-03-03T04:35:00.551Z,0.00
2019-03-03T04:36:00.463Z,0.00
2019-03-03T04:37:00.379Z,0.00
2019-03-03T04:38:00.300Z,0.00
2019-03-03T04:39:00.214Z,0.00
2019-03-03T04:40:00.317Z,0.00
2019-03-03T04:41:00.037Z,0.00
2019-03-03T04:41:59.961Z,0.00
2019-03-03T04:42:59.875Z,0.00
2019-03-03T04:43:59.788Z,0.00
2019-03-03T04:44:59.701Z,0.00
2019-03-03T04:45:59.613Z,0.00
2019-03-03T04:46:59.538Z,0.00
2019-03-03T04:47:59.450Z,0.00
2019-03-03T04:48:59.362Z,0.00
2019-03-03T04:49:59.279Z,0.00
2019-03-03T04:50:59.201Z,0.00
2019-03-03T04:51:59.114Z,0.00
2019-03-03T04:52:59.027Z,0.00
2019-03-03T04:53:58.940Z,0.00
2019-03-03T04:54:58.851Z,0.00
2019-03-03T04:55:58.827Z,0.00
2019-03-03T04:56:58.689Z,0.00
2019-03-03T04:57:58.605Z,0.00
2019-03-03T04:58:58.516Z,0.00
2019-03-03T04:59:58.438Z,0.00
2019-03-03T05:00:58.352Z,0.00
2019-03-03T05:01:58.264Z,0.00
2019-03-03T05:02:58.192Z,0.00
2019-03-03T05:03:58.107Z,0.00
2019-03-03T05:04:58.028Z,0.00
2019-03-03T05:05:57.927Z,0.00
2019-03-03T05:06:57.840Z,0.00
2019-03-03T05:07:57.753Z,0.00
2019-03-03T05:08:57.679Z,0.00
2019-03-03T05:09:57.590Z,0.00
2019-03-03T05:10:57.503Z,0.00
2019-03-03T05:11:57.415Z,0.00
2019-03-03T05:12:57.340Z,0.00
2019-03-03T05:13:57.252Z,0.00
2019-03-03T05:14:57.168Z,0.00
2019-03-03T05:15:57.126Z,0.00
2019-03-03T05:16:57.039Z,0.00
2019-03-03T05:17:56.915Z,0.00
2019-03-03T05:18:56.886Z,0.00
2019-03-03T05:19:56.741Z,0.00
2019-03-03T05:20:56.928Z,0.00
2019-03-03T05:21:56.579Z,0.00
2019-03-03T05:22:56.491Z,0.00
2019-03-03T05:23:56.405Z,0.00
2019-03-03T05:24:56.329Z,0.00
2019-03-03T05:25:56.241Z,4.00
2019-03-03T05:26:56.155Z,0.00
2019-03-03T05:27:56.067Z,4.00
2019-03-03T05:28:55.991Z,4.00
2019-03-03T05:29:55.906Z,8.00
2019-03-03T05:30:55.817Z,8.00
2019-03-03T05:31:55.731Z,8.00
2019-03-03T05:32:55.655Z,8.00
2019-03-03T05:33:55.567Z,12.00
2019-03-03T05:34:55.480Z,12.00
2019-03-03T05:35:55.405Z,12.00
2019-03-03T05:36:55.317Z,16.00
2019-03-03T05:37:55.230Z,20.00
2019-03-03T05:38:55.142Z,16.00
2019-03-03T05:39:55.057Z,20.00
2019-03-03T05:40:54.969Z,16.00
2019-03-03T05:41:54.906Z,16.00
2019-03-03T05:42:54.806Z,20.00
2019-03-03T05:43:54.719Z,20.00
2019-03-03T05:44:54.632Z,32.00
2019-03-03T05:45:54.556Z,40.00
2019-03-03T05:46:54.468Z,56.00
2019-03-03T05:47:54.384Z,64.00
2019-03-03T05:48:54.296Z,68.00
2019-03-03T05:49:54.218Z,72.00
2019-03-03T05:50:54.132Z,84.00
2019-03-03T05:51:54.043Z,80.00
2019-03-03T05:52:53.956Z,80.00
2019-03-03T05:53:53.882Z,92.00
2019-03-03T05:54:53.794Z,96.00
2019-03-03T05:55:53.707Z,92.00
2019-03-03T05:56:53.656Z,100.00
2019-03-03T05:57:53.545Z,112.00
2019-03-03T05:58:53.472Z,116.00
2019-03-03T05:59:53.372Z,112.00
2019-03-03T06:00:53.288Z,116.00
2019-03-03T06:01:53.209Z,128.00
2019-03-03T06:02:53.120Z,132.00
2019-03-03T06:03:53.033Z,140.00
2019-03-03T06:04:52.945Z,160.00
2019-03-03T06:05:52.881Z,160.00
2019-03-03T06:06:52.785Z,164.00
2019-03-03T06:07:52.695Z,160.00
2019-03-03T06:08:52.608Z,152.00
2019-03-03T06:09:52.535Z,152.00
2019-03-03T06:10:52.446Z,156.00
2019-03-03T06:11:52.359Z,144.00
2019-03-03T06:12:52.271Z,152.00
2019-03-03T06:13:52.197Z,164.00
2019-03-03T06:14:52.110Z,180.00
2019-03-03T06:15:52.021Z,204.00
2019-03-03T06:16:51.934Z,164.00
2019-03-03T06:17:51.860Z,176.00
2019-03-03T06:18:51.771Z,208.00
2019-03-03T06:19:51.690Z,220.00
2019-03-03T06:20:51.904Z,196.00
2019-03-03T06:21:51.521Z,184.00
2019-03-03T06:22:51.435Z,192.00
2019-03-03T06:23:51.360Z,276.00
2019-03-03T06:24:51.260Z,336.00
2019-03-03T06:25:51.194Z,352.00
2019-03-03T06:26:51.097Z,304.00
2019-03-03T06:27:51.010Z,308.00
2019-03-03T06:28:50.925Z,360.00
2019-03-03T06:29:50.849Z,420.00
2019-03-03T06:30:50.761Z,420.00
2019-03-03T06:31:50.672Z,416.00
2019-03-03T06:32:50.598Z,424.00
2019-03-03T06:33:50.511Z,440.00
2019-03-03T06:34:50.423Z,504.00
2019-03-03T06:35:50.336Z,488.00
2019-03-03T06:36:50.261Z,456.00
2019-03-03T06:37:50.186Z,412.00
2019-03-03T06:38:50.087Z,364.00
2019-03-03T06:39:50.002Z,400.00
2019-03-03T06:40:49.923Z,484.00
2019-03-03T06:41:49.837Z,512.00
2019-03-03T06:42:49.752Z,516.00
2019-03-03T06:43:49.687Z,560.00
2019-03-03T06:44:49.587Z,588.00
2019-03-03T06:45:49.749Z,612.00
2019-03-03T06:46:49.412Z,664.00
2019-03-03T06:47:49.339Z,656.00
2019-03-03T06:48:49.249Z,704.00
2019-03-03T06:49:49.163Z,732.00
2019-03-03T06:50:49.076Z,820.00
2019-03-03T06:51:49.001Z,848.00
2019-03-03T06:52:48.912Z,868.00
2019-03-03T06:53:48.826Z,924.00
2019-03-03T06:54:48.750Z,932.00
2019-03-03T06:55:48.668Z,1024.00
2019-03-03T06:56:48.575Z,1084.00
2019-03-03T06:57:48.504Z,1096.00
2019-03-03T06:58:48.413Z,1116.00
2019-03-03T06:59:48.339Z,1152.00
2019-03-03T07:00:48.242Z,1156.00
2019-03-03T07:01:48.164Z,1244.00
2019-03-03T07:02:48.077Z,1380.00
2019-03-03T07:03:47.989Z,1396.00
2019-03-03T07:04:47.914Z,1364.00
2019-03-03T07:05:47.826Z,1408.00
2019-03-03T07:06:47.742Z,1400.00
2019-03-03T07:07:47.652Z,1416.00
2019-03-03T07:08:47.577Z,1444.00
2019-03-03T07:09:47.490Z,1564.00
2019-03-03T07:10:47.401Z,1660.00
2019-03-03T07:11:47.327Z,1600.00
2019-03-03T07:12:47.240Z,1620.00
2019-03-03T07:13:47.165Z,1700.00
2019-03-03T07:14:47.077Z,1728.00
2019-03-03T07:15:46.991Z,1776.00
2019-03-03T07:16:46.903Z,1952.00
2019-03-03T07:17:46.827Z,2096.00
2019-03-03T07:18:46.741Z,2060.00
2019-03-03T07:19:46.665Z,1868.00
2019-03-03T07:20:46.869Z,1824.00
2019-03-03T07:21:46.490Z,1828.00
2019-03-03T07:22:46.404Z,1716.00
2019-03-03T07:23:46.319Z,1900.00
2019-03-03T07:24:46.243Z,1868.00
2019-03-03T07:25:46.154Z,2096.00
2019-03-03T07:26:46.067Z,2460.00
2019-03-03T07:27:45.993Z,2548.00
2019-03-03T07:28:45.904Z,2672.00
2019-03-03T07:29:45.820Z,2624.00
2019-03-03T07:30:45.747Z,2596.00
2019-03-03T07:31:45.654Z,2528.00
2019-03-03T07:32:45.567Z,2604.00
2019-03-03T07:33:45.509Z,2644.00
2019-03-03T07:34:47.065Z,2640.00
2019-03-03T07:35:45.318Z,2664.00
2019-03-03T07:36:45.241Z,2668.00
2019-03-03T07:37:45.154Z,2804.00
2019-03-03T07:38:45.068Z,3076.00
2019-03-03T07:39:44.983Z,3252.00
2019-03-03T07:40:44.906Z,3616.00
2019-03-03T07:41:44.818Z,3684.00
2019-03-03T07:42:44.731Z,3736.00
2019-03-03T07:43:44.655Z,3624.00
2019-03-03T07:44:44.568Z,3500.00
2019-03-03T07:45:44.483Z,3644.00
2019-03-03T07:46:44.406Z,4228.00
2019-03-03T07:47:44.318Z,4104.00
2019-03-03T07:48:44.232Z,3696.00
2019-03-03T07:49:44.155Z,3232.00
2019-03-03T07:50:44.070Z,2932.00
2019-03-03T07:51:43.982Z,2652.00
2019-03-03T07:52:43.907Z,2696.00
2019-03-03T07:53:43.819Z,3036.00
2019-03-03T07:54:43.733Z,3140.00
2019-03-03T07:55:43.657Z,3584.00
2019-03-03T07:56:43.568Z,4452.00
2019-03-03T07:57:43.494Z,4728.00
2019-03-03T07:58:43.408Z,4920.00
2019-03-03T07:59:43.319Z,5068.00
2019-03-03T08:00:43.246Z,5600.00
2019-03-03T08:01:43.157Z,5924.00
2019-03-03T08:02:43.071Z,6144.00
2019-03-03T08:03:42.997Z,5836.00
2019-03-03T08:04:42.907Z,4784.00
2019-03-03T08:05:42.820Z,4492.00
2019-03-03T08:06:42.746Z,4632.00
2019-03-03T08:07:42.658Z,4720.00
2019-03-03T08:08:42.570Z,4516.00
2019-03-03T08:09:42.496Z,4620.00
2019-03-03T08:10:42.409Z,4692.00
2019-03-03T08:11:42.337Z,4952.00
2019-03-03T08:12:42.246Z,5380.00
2019-03-03T08:13:42.160Z,5236.00
2019-03-03T08:14:42.084Z,5668.00
2019-03-03T08:15:41.998Z,7548.00
2019-03-03T08:16:41.908Z,8236.00
2019-03-03T08:17:41.834Z,8304.00
2019-03-03T08:18:41.747Z,8124.00
2019-03-03T08:19:41.660Z,7452.00
2019-03-03T08:20:41.585Z,7240.00
2019-03-03T08:21:41.497Z,7020.00
2019-03-03T08:22:41.431Z,6404.00
2019-03-03T08:23:41.335Z,5520.00
2019-03-03T08:24:41.246Z,5200.00
2019-03-03T08:25:41.173Z,5864.00
2019-03-03T08:26:41.097Z,6876.00
2019-03-03T08:27:41.012Z,7680.00
2019-03-03T08:28:40.929Z,8064.00
2019-03-03T08:29:40.837Z,8032.00
2019-03-03T08:30:40.760Z,8568.00
2019-03-03T08:31:40.673Z,8316.00
2019-03-03T08:32:40.599Z,9132.00
2019-03-03T08:33:40.510Z,8784.00
2019-03-03T08:34:40.423Z,7692.00
2019-03-03T08:35:40.348Z,7760.00
2019-03-03T08:36:40.260Z,7300.00
2019-03-03T08:37:40.185Z,7380.00
2019-03-03T08:38:40.099Z,7084.00
2019-03-03T08:39:40.014Z,6256.00
2019-03-03T08:40:39.936Z,5652.00
2019-03-03T08:41:39.850Z,4604.00
2019-03-03T08:42:39.775Z,4500.00
2019-03-03T08:43:39.686Z,4416.00
2019-03-03T08:44:39.600Z,5256.00
2019-03-03T08:45:39.524Z,4692.00
2019-03-03T08:46:39.438Z,4876.00
2019-03-03T08:47:39.361Z,4924.00
2019-03-03T08:48:40.779Z,5204.00
2019-03-03T08:49:39.199Z,4180.00
2019-03-03T08:50:39.111Z,5796.00
2019-03-03T08:51:39.025Z,6848.00
2019-03-03T08:52:38.953Z,6392.00
2019-03-03T08:53:38.862Z,4824.00
2019-03-03T08:54:38.788Z,3976.00
2019-03-03T08:55:38.700Z,3524.00
2019-03-03T08:56:38.613Z,4092.00
2019-03-03T08:57:38.537Z,4840.00
2019-03-03T08:58:38.451Z,5308.00
2019-03-03T08:59:38.375Z,6084.00
2019-03-03T09:00:38.287Z,5940.00
2019-03-03T09:01:38.214Z,6956.00
2019-03-03T09:02:38.126Z,7208.00
2019-03-03T09:03:38.038Z,6952.00
2019-03-03T09:04:37.964Z,6288.00
2019-03-03T09:05:37.877Z,5836.00
2019-03-03T09:06:37.789Z,6080.00
2019-03-03T09:07:37.713Z,5532.00
2019-03-03T09:08:37.626Z,4656.00
2019-03-03T09:09:37.554Z,3848.00
2019-03-03T09:10:37.765Z,3460.00
2019-03-03T09:11:37.388Z,4128.00
2019-03-03T09:12:37.303Z,4600.00
2019-03-03T09:13:37.214Z,4084.00
2019-03-03T09:14:37.139Z,4500.00
2019-03-03T09:15:37.052Z,4528.00
2019-03-03T09:16:36.965Z,4132.00
2019-03-03T09:17:36.891Z,3288.00
2019-03-03T09:18:36.804Z,3040.00
2019-03-03T09:19:36.728Z,3352.00
2019-03-03T09:20:36.940Z,4032.00
2019-03-03T09:21:36.553Z,4080.00
2019-03-03T09:22:36.477Z,3828.00
2019-03-03T09:23:36.392Z,3144.00
2019-03-03T09:24:36.315Z,2584.00
2019-03-03T09:25:36.229Z,2508.00
2019-03-03T09:26:36.140Z,2880.00
2019-03-03T09:27:36.065Z,3176.00
2019-03-03T09:28:35.979Z,3284.00
2019-03-03T09:29:35.904Z,3332.00
2019-03-03T09:30:35.816Z,3088.00
2019-03-03T09:31:35.729Z,3480.00
2019-03-03T09:32:35.655Z,4100.00
2019-03-03T09:33:36.765Z,4628.00
2019-03-03T09:34:35.491Z,4520.00
2019-03-03T09:35:35.405Z,4764.00
2019-03-03T09:36:35.318Z,4244.00
2019-03-03T09:37:35.241Z,3672.00
2019-03-03T09:38:35.154Z,3576.00
2019-03-03T09:39:35.080Z,3696.00
2019-03-03T09:40:35.241Z,3788.00
2019-03-03T09:41:34.906Z,4344.00
2019-03-03T09:42:34.831Z,5004.00
2019-03-03T09:43:34.742Z,5240.00
2019-03-03T09:44:34.668Z,4944.00
2019-03-03T09:45:34.580Z,4952.00
2019-03-03T09:46:34.493Z,5144.00
2019-03-03T09:47:34.417Z,5036.00
2019-03-03T09:48:34.330Z,5212.00
2019-03-03T09:49:34.256Z,4800.00
2019-03-03T09:50:34.170Z,5028.00
2019-03-03T09:51:34.081Z,5040.00
2019-03-03T09:52:34.008Z,4696.00
2019-03-03T09:53:33.920Z,4656.00
2019-03-03T09:54:33.843Z,4772.00
2019-03-03T09:55:33.757Z,4604.00
2019-03-03T09:56:33.683Z,4940.00
2019-03-03T09:57:33.593Z,4768.00
2019-03-03T09:58:33.510Z,4588.00
2019-03-03T09:59:33.432Z,3904.00
2019-03-03T10:00:33.357Z,3540.00
2019-03-03T10:01:33.271Z,3408.00
2019-03-03T10:02:33.183Z,3264.00
2019-03-03T10:03:33.097Z,3428.00
2019-03-03T10:04:33.019Z,3988.00
2019-03-03T10:05:32.932Z,4012.00
2019-03-03T10:06:32.858Z,4440.00
2019-03-03T10:07:32.783Z,4004.00
2019-03-03T10:08:32.694Z,4344.00
2019-03-03T10:09:32.612Z,4712.00
2019-03-03T10:10:32.519Z,4740.00
2019-03-03T10:11:32.444Z,4816.00
2019-03-03T10:12:32.358Z,4772.00
2019-03-03T10:13:32.283Z,5456.00
2019-03-03T10:14:32.195Z,4948.00
2019-03-03T10:15:32.109Z,4648.00
2019-03-03T10:16:32.034Z,5412.00
2019-03-03T10:17:31.946Z,4932.00
2019-03-03T10:18:31.871Z,4316.00
2019-03-03T10:19:31.785Z,4360.00
2019-03-03T10:20:32.008Z,4172.00
2019-03-03T10:21:31.621Z,4080.00
2019-03-03T10:22:31.533Z,3756.00
2019-03-03T10:23:31.460Z,3692.00
2019-03-03T10:24:31.371Z,3476.00
2019-03-03T10:25:31.308Z,3352.00
2019-03-03T10:26:31.209Z,3364.00
2019-03-03T10:27:31.134Z,4116.00
2019-03-03T10:28:31.046Z,3512.00
2019-03-03T10:29:30.973Z,3388.00
2019-03-03T10:30:30.885Z,3344.00
2019-03-03T10:31:30.798Z,3428.00
2019-03-03T10:32:30.722Z,3332.00
2019-03-03T10:33:30.635Z,3036.00
2019-03-03T10:34:30.560Z,2932.00
2019-03-03T10:35:30.472Z,3396.00
2019-03-03T10:36:30.387Z,3636.00
2019-03-03T10:37:30.310Z,3288.00
2019-03-03T10:38:36.119Z,3340.00
2019-03-03T10:39:30.147Z,3076.00
2019-03-03T10:40:30.061Z,2960.00
2019-03-03T10:41:29.985Z,3512.00
2019-03-03T10:42:29.900Z,4644.00
2019-03-03T10:43:29.862Z,5328.00
2019-03-03T10:44:29.737Z,4820.00
2019-03-03T10:45:29.648Z,5684.00
2019-03-03T10:46:29.573Z,5192.00
2019-03-03T10:47:29.487Z,4800.00
2019-03-03T10:48:29.400Z,3636.00
2019-03-03T10:49:29.327Z,3604.00
2019-03-03T10:50:29.237Z,6128.00
2019-03-03T10:51:29.161Z,7752.00
2019-03-03T10:52:29.095Z,5388.00
2019-03-03T10:53:28.999Z,3848.00
2019-03-03T10:54:28.912Z,3944.00
2019-03-03T10:55:28.824Z,4744.00
2019-03-03T10:56:28.749Z,7792.00
2019-03-03T10:57:30.331Z,7676.00
2019-03-03T10:58:28.596Z,8276.00
2019-03-03T10:59:28.499Z,7412.00
2019-03-03T11:00:28.413Z,7932.00
2019-03-03T11:01:28.338Z,8776.00
2019-03-03T11:02:28.271Z,8916.00
2019-03-03T11:03:28.175Z,8160.00
2019-03-03T11:04:28.089Z,10172.00
2019-03-03T11:05:28.008Z,9440.00
2019-03-03T11:06:27.925Z,8996.00
2019-03-03T11:07:27.840Z,7676.00
2019-03-03T11:08:27.764Z,5436.00
2019-03-03T11:09:27.676Z,6244.00
2019-03-03T11:10:27.600Z,6476.00
2019-03-03T11:11:27.514Z,4912.00
2019-03-03T11:12:27.427Z,4704.00
2019-03-03T11:13:27.351Z,5288.00
2019-03-03T11:14:27.264Z,4900.00
2019-03-03T11:15:27.192Z,4896.00
2019-03-03T11:16:27.101Z,5216.00
2019-03-03T11:17:27.028Z,5668.00
2019-03-03T11:18:26.940Z,6112.00
2019-03-03T11:19:26.853Z,6180.00
2019-03-03T11:20:26.777Z,5036.00
2019-03-03T11:21:26.690Z,4644.00
2019-03-03T11:22:26.615Z,4924.00
2019-03-03T11:23:26.526Z,5052.00
2019-03-03T11:24:26.452Z,5324.00
2019-03-03T11:25:26.365Z,5252.00
2019-03-03T11:26:26.278Z,6124.00
2019-03-03T11:27:26.203Z,5628.00
2019-03-03T11:28:26.116Z,5328.00
2019-03-03T11:29:26.041Z,5436.00
2019-03-03T11:30:25.953Z,5756.00
2019-03-03T11:31:25.878Z,5820.00
2019-03-03T11:32:25.791Z,5556.00
2019-03-03T11:33:25.713Z,5720.00
2019-03-03T11:34:25.629Z,5220.00
2019-03-03T11:35:25.544Z,5388.00
2019-03-03T11:36:25.466Z,5260.00
2019-03-03T11:37:25.379Z,4976.00
2019-03-03T11:38:25.307Z,5088.00
2019-03-03T11:39:25.236Z,6452.00
2019-03-03T11:40:25.143Z,6536.00
2019-03-03T11:41:25.054Z,5900.00
2019-03-03T11:42:24.967Z,5524.00
2019-03-03T11:43:24.893Z,4708.00
2019-03-03T11:44:24.805Z,5052.00
2019-03-03T11:45:24.729Z,5108.00
2019-03-03T11:46:24.642Z,5280.00
2019-03-03T11:47:24.570Z,4768.00
2019-03-03T11:48:24.483Z,5644.00
2019-03-03T11:49:24.405Z,5648.00
2019-03-03T11:50:24.318Z,4944.00
2019-03-03T11:51:24.231Z,5380.00
2019-03-03T11:52:24.155Z,4896.00
2019-03-03T11:53:24.070Z,4416.00
2019-03-03T11:54:23.993Z,3832.00
2019-03-03T11:55:23.905Z,3604.00
2019-03-03T11:56:23.830Z,3988.00
2019-03-03T11:57:23.744Z,3980.00
2019-03-03T11:58:23.669Z,4092.00
2019-03-03T11:59:23.598Z,4080.00
2019-03-03T12:00:23.755Z,4744.00
2019-03-03T12:01:23.421Z,4192.00
2019-03-03T12:02:23.344Z,3732.00
2019-03-03T12:03:23.257Z,3832.00
2019-03-03T12:04:23.174Z,3740.00
2019-03-03T12:05:23.095Z,3044.00
2019-03-03T12:06:23.006Z,3048.00
2019-03-03T12:07:22.954Z,3376.00
2019-03-03T12:08:22.845Z,3400.00
2019-03-03T12:09:22.758Z,3208.00
2019-03-03T12:10:22.682Z,3148.00
2019-03-03T12:11:22.595Z,3312.00
2019-03-03T12:12:22.522Z,4192.00
2019-03-03T12:13:22.443Z,4596.00
2019-03-03T12:14:22.356Z,4464.00
2019-03-03T12:15:22.281Z,3992.00
2019-03-03T12:16:22.185Z,4008.00
2019-03-03T12:17:22.107Z,4260.00
2019-03-03T12:18:22.032Z,3808.00
2019-03-03T12:19:21.945Z,3604.00
2019-03-03T12:20:22.107Z,4076.00
2019-03-03T12:21:21.782Z,5244.00
2019-03-03T12:22:21.699Z,5408.00
2019-03-03T12:23:21.607Z,5344.00
2019-03-03T12:24:21.533Z,5248.00
2019-03-03T12:25:21.806Z,5480.00
2019-03-03T12:26:21.360Z,5864.00
2019-03-03T12:27:21.284Z,6436.00
2019-03-03T12:28:21.197Z,6748.00
2019-03-03T12:29:21.122Z,6596.00
2019-03-03T12:30:21.038Z,6052.00
2019-03-03T12:31:20.959Z,6384.00
2019-03-03T12:32:20.872Z,6392.00
2019-03-03T12:33:20.784Z,6736.00
2019-03-03T12:34:20.709Z,6512.00
2019-03-03T12:35:20.622Z,6604.00
2019-03-03T12:36:20.547Z,6664.00
2019-03-03T12:37:20.460Z,6740.00
2019-03-03T12:38:20.374Z,6732.00